»·PEaware :: N5GL KPHX-KFLG

N5GL :: KPHX-KFLG

FLIGHT INFORMATION

Flight Status: Arrived
Operator: Privately registered:
United States
More flights under this callsign
Pilot: Georg L. (13308)
Aircraft: SOCATA TBM-900
(TBM9)
More flights by this aircraft type
Origin: KPHX Phoenix Sky Harbor Intl
United States
Destination: KFLG Flagstaff Pulliam
United States
More flights between these airports :: More routes between these airports
Route: QUAKY1 CARTL FLG
File this flight plan on PilotEdge
Remarks:
Altitude:
(Current/Filed)
22,000ft
Speed:
(Current/Filed)
309kts
Departed: 28-Apr-20 09:29 AM
Arrived: 28-Apr-20 10:00 AM
Distance/Time
Traveled:
103nm/0:30
Distance/Time
To Go:
Arrived

Flight Plot

Page will automatically refresh every two minutes.

Flight plan parsing failed; only flown route is shown


Map Options




Map Legend


Flown Route
Filed Route
Departure Airport
Arrival Airport
Navaid (VOR, NDB)
Fix

Horizontal Profiles

Position Reports

Time Latitude Longitude Heading Altitude Ground
Speed
28-Apr-20 09:06 33.426441 -112.022804 273 1134ft 0kts
28-Apr-20 09:07 33.426441 -112.022804 273 1134ft 0kts
28-Apr-20 09:08 33.426441 -112.022804 273 1134ft 0kts
28-Apr-20 09:09 33.426441 -112.022804 273 1134ft 0kts
28-Apr-20 09:10 33.426441 -112.022804 273 1134ft 0kts
28-Apr-20 09:11 33.426441 -112.022804 273 1134ft 0kts
28-Apr-20 09:12 33.426441 -112.022804 273 1134ft 0kts
28-Apr-20 09:13 33.426441 -112.022804 273 1134ft 0kts
28-Apr-20 09:14 33.426441 -112.022804 273 1134ft 0kts
28-Apr-20 09:15 33.426441 -112.022804 273 1134ft 0kts
28-Apr-20 09:16 33.426441 -112.022804 273 1134ft 0kts
28-Apr-20 09:17 33.426441 -112.022804 273 1134ft 0kts
28-Apr-20 09:18 33.426441 -112.022804 273 1134ft 0kts
28-Apr-20 09:19 33.426441 -112.022804 273 1134ft 0kts
28-Apr-20 09:20 33.426441 -112.022804 273 1134ft 0kts
28-Apr-20 09:21 33.426441 -112.022804 273 1134ft 0kts
28-Apr-20 09:22 33.426441 -112.022804 273 1134ft 0kts
28-Apr-20 09:24 33.426441 -112.022804 273 1134ft 0kts
28-Apr-20 09:25 33.426757 -112.023735 319 1134ft 7kts
28-Apr-20 09:26 33.427752 -112.025741 270 1134ft 9kts
28-Apr-20 09:27 33.427965 -112.026948 345 1134ft 0kts
28-Apr-20 09:28 33.427965 -112.026948 345 1134ft 0kts
28-Apr-20 09:29 33.428845 -112.017809 90 1215ft 110kts
28-Apr-20 09:30 33.430847 -111.975768 84 3416ft 138kts
28-Apr-20 09:31 33.433521 -111.930515 84 5896ft 139kts
28-Apr-20 09:32 33.438661 -111.884076 45 8371ft 143kts
28-Apr-20 09:33 33.479144 -111.870547 8 10379ft 175kts
28-Apr-20 09:34 33.531447 -111.860214 8 12041ft 202kts
28-Apr-20 09:35 33.587461 -111.849208 8 13811ft 207kts
28-Apr-20 09:36 33.644790 -111.837937 7 15591ft 211kts
28-Apr-20 09:37 33.703144 -111.848166 349 17248ft 215kts
28-Apr-20 09:38 33.762607 -111.861518 349 18966ft 219kts
28-Apr-20 09:39 33.823205 -111.875139 349 20577ft 225kts
28-Apr-20 09:39 33.874810 -111.886755 349 21890ft 228kts
28-Apr-20 09:41 33.955269 -111.904907 349 22077ft 273kts
28-Apr-20 09:42 34.031792 -111.922198 349 22069ft 284kts
28-Apr-20 09:42 34.096924 -111.936199 354 22068ft 286kts
28-Apr-20 09:43 34.166412 -111.943886 354 22163ft 285kts
28-Apr-20 09:45 34.258555 -111.954047 354 22266ft 285kts
28-Apr-20 09:45 34.327838 -111.961713 354 20840ft 314kts
28-Apr-20 09:46 34.415861 -111.971454 354 18846ft 319kts
28-Apr-20 09:47 34.503198 -111.981100 354 16844ft 313kts
28-Apr-20 09:48 34.589347 -111.990626 354 14927ft 307kts
28-Apr-20 09:49 34.669003 -111.999445 354 14888ft 274kts
28-Apr-20 09:50 34.742008 -111.991643 28 14645ft 278kts
28-Apr-20 09:51 34.811745 -111.945379 26 13154ft 284kts
28-Apr-20 09:52 34.880456 -111.900297 26 11638ft 278kts
28-Apr-20 09:53 34.947503 -111.856223 27 10335ft 267kts
28-Apr-20 09:54 35.004927 -111.812577 37 9754ft 219kts
28-Apr-20 09:55 35.048837 -111.766364 39 9193ft 179kts
28-Apr-20 09:56 35.087189 -111.725675 40 8198ft 181kts
28-Apr-20 09:57 35.117728 -111.693274 40 7417ft 114kts
28-Apr-20 09:58 35.137134 -111.672681 41 7005ft 48kts
28-Apr-20 09:59 35.138841 -111.672576 222 7005ft 8kts
28-Apr-20 10:00 35.137466 -111.675269 236 7006ft 8kts
28-Apr-20 10:01 35.137356 -111.675411 220 7007ft 0kts
28-Apr-20 10:02 35.137356 -111.675411 220 7007ft 0kts
28-Apr-20 10:03 35.137357 -111.675411 220 7007ft 0kts
28-Apr-20 10:04 35.137357 -111.675411 220 7007ft 0kts
28-Apr-20 10:05 35.137357 -111.675411 220 7007ft 0kts
28-Apr-20 10:06 35.137357 -111.675411 220 7007ft 0kts
28-Apr-20 10:07 35.137357 -111.675411 220 7007ft 0kts
28-Apr-20 10:08 35.137357 -111.675411 220 7007ft 0kts
28-Apr-20 10:09 35.137357 -111.675411 220 7007ft 0kts
28-Apr-20 10:10 35.137357 -111.675411 220 7007ft 0kts
28-Apr-20 10:11 35.137357 -111.675411 220 7007ft 0kts
28-Apr-20 10:12 35.137357 -111.675411 220 7007ft 0kts
28-Apr-20 10:13 35.137357 -111.675411 220 7007ft 0kts

Navigation Log

Ident Type
Flight plan parsing failed, navigation log unavailable